Time;durP1;ratioP1;P1;durP2;ratioP2;P2;SDS_P1;SDS_P2;PMS_P1;PMS_P2;Temp;Humidity;BMP_temperature;BMP_pressure;BME280_temperature;BME280_humidity;BME280_pressure;Samples;Min_cycle;Max_cycle;Signal;HPM_P1;HPM_P2
2023/01/05 00:00:10;;;;;;;14.05;2.55;;;;;;;;;;4998479;28;20025;-90
2023/01/05 00:02:36;;;;;;;12.77;2.35;;;;;;;;;;5005206;28;20552;-91
2023/01/05 00:05:01;;;;;;;7.75;2.00;;;;;;;;;;5022233;28;20032;-91
2023/01/05 00:07:29;;;;;;;10.65;2.38;;;;;;;;;;5002769;28;20123;-91
2023/01/05 00:09:54;;;;;;;9.40;2.20;;;;;;;;;;5019628;28;20500;-90
2023/01/05 00:23:17;;;;;;;12.40;2.15;;;;;;;;;;5016456;28;20135;-91
2023/01/05 00:25:42;;;;;;;11.10;2.00;;;;;;;;;;5015040;28;20036;-91
2023/01/05 00:28:07;;;;;;;11.30;1.98;;;;;;;;;;5014275;28;20022;-91
2023/01/05 00:30:40;;;;;;;8.90;1.50;;;;;;;;;;4996511;28;20029;-91
2023/01/05 00:33:09;;;;;;;14.07;1.98;;;;;;;;;;4996446;28;20029;-91
2023/01/05 00:35:34;;;;;;;10.43;2.08;;;;;;;;;;5014904;28;20034;-90
2023/01/05 00:38:00;;;;;;;11.13;1.50;;;;;;;;;;5003155;28;20018;-91
2023/01/05 00:40:25;;;;;;;7.63;1.25;;;;;;;;;;5002518;28;20528;-91
2023/01/05 00:42:51;;;;;;;10.02;1.40;;;;;;;;;;5021013;28;20056;-91
2023/01/05 00:45:17;;;;;;;14.75;1.92;;;;;;;;;;5004077;28;20489;-91
2023/01/05 00:47:42;;;;;;;7.15;1.25;;;;;;;;;;5018281;28;20021;-91
2023/01/05 00:50:09;;;;;;;9.63;1.50;;;;;;;;;;5003473;28;20075;-90
2023/01/05 00:52:34;;;;;;;9.30;1.75;;;;;;;;;;5002418;28;20032;-91
2023/01/05 00:55:00;;;;;;;9.90;1.35;;;;;;;;;;5017671;28;20026;-95
2023/01/05 00:57:25;;;;;;;11.02;1.63;;;;;;;;;;5009531;28;20029;-96
2023/01/05 00:59:50;;;;;;;12.40;1.80;;;;;;;;;;5011741;28;20028;-96
2023/01/05 01:02:16;;;;;;;14.10;3.05;;;;;;;;;;5029765;28;20033;-95
2023/01/05 01:04:43;;;;;;;13.75;2.03;;;;;;;;;;5013030;28;20032;-95
2023/01/05 01:07:09;;;;;;;11.13;1.85;;;;;;;;;;5028656;28;20029;-94
2023/01/05 01:09:34;;;;;;;11.52;1.40;;;;;;;;;;5012082;28;20021;-94
2023/01/05 01:12:00;;;;;;;9.48;1.63;;;;;;;;;;5025110;28;20256;-95
2023/01/05 01:14:26;;;;;;;12.85;1.98;;;;;;;;;;5013460;28;20026;-95
2023/01/05 01:16:51;;;;;;;14.52;1.88;;;;;;;;;;5015370;28;20033;-95
2023/01/05 01:19:19;;;;;;;11.80;1.60;;;;;;;;;;5025581;28;20057;-94
2023/01/05 01:21:45;;;;;;;9.32;1.30;;;;;;;;;;4989330;28;20064;-95
2023/01/05 01:24:14;;;;;;;11.15;1.70;;;;;;;;;;4988095;28;20089;-96
2023/01/05 01:26:39;;;;;;;11.75;1.80;;;;;;;;;;5005558;28;20030;-95
2023/01/05 01:29:05;;;;;;;9.23;2.33;;;;;;;;;;4993711;28;20144;-94
2023/01/05 01:31:30;;;;;;;13.07;1.52;;;;;;;;;;4988194;28;20029;-95
2023/01/05 01:33:55;;;;;;;11.57;1.80;;;;;;;;;;4990177;28;20029;-95
2023/01/05 01:36:21;;;;;;;11.93;1.70;;;;;;;;;;5009611;28;20054;-94
2023/01/05 01:38:46;;;;;;;14.70;2.50;;;;;;;;;;4992960;28;20037;-95
2023/01/05 01:41:15;;;;;;;11.45;1.85;;;;;;;;;;4993453;28;20030;-95
2023/01/05 01:43:56;;;;;;;10.02;1.73;;;;;;;;;;5007876;28;20037;-96
2023/01/05 01:46:23;;;;;;;10.35;1.42;;;;;;;;;;4990661;28;20084;-95
2023/01/05 01:48:52;;;;;;;10.05;1.48;;;;;;;;;;4994461;28;20026;-95
2023/01/05 01:51:21;;;;;;;10.38;2.08;;;;;;;;;;4989533;28;20030;-95
2023/01/05 01:53:50;;;;;;;10.25;1.58;;;;;;;;;;4989142;28;20048;-95
2023/01/05 01:56:20;;;;;;;7.60;1.73;;;;;;;;;;5006821;28;20192;-95
2023/01/05 01:58:45;;;;;;;13.15;1.95;;;;;;;;;;4990221;28;20137;-95
2023/01/05 02:01:10;;;;;;;11.75;1.85;;;;;;;;;;5000787;28;20100;-94
2023/01/05 02:03:36;;;;;;;11.73;1.60;;;;;;;;;;4989937;28;20462;-94
2023/01/05 02:06:02;;;;;;;16.60;2.20;;;;;;;;;;5006870;28;20121;-95
2023/01/05 02:08:30;;;;;;;12.25;1.92;;;;;;;;;;4987677;28;20026;-93
2023/01/05 02:10:58;;;;;;;12.35;1.90;;;;;;;;;;4990198;28;20056;-94
2023/01/05 02:13:36;;;;;;;12.50;1.80;;;;;;;;;;5008539;28;20060;-95
2023/01/05 02:16:20;;;;;;;13.48;1.77;;;;;;;;;;4985879;28;20057;-94
2023/01/05 02:18:55;;;;;;;9.02;1.65;;;;;;;;;;4988279;28;20040;-95
2023/01/05 02:21:25;;;;;;;8.93;1.38;;;;;;;;;;5023644;28;20025;-94
2023/01/05 02:24:15;;;;;;;9.68;1.58;;;;;;;;;;5007666;28;20131;-95
2023/01/05 02:26:50;;;;;;;10.27;1.83;;;;;;;;;;5024282;28;20030;-95
2023/01/05 02:29:26;;;;;;;13.23;1.95;;;;;;;;;;5009716;28;20060;-94
2023/01/05 02:31:54;;;;;;;16.35;2.22;;;;;;;;;;5022024;28;20021;-94
2023/01/05 02:34:29;;;;;;;8.00;1.63;;;;;;;;;;5021873;28;20515;-94
2023/01/05 02:37:03;;;;;;;14.35;2.95;;;;;;;;;;5022034;28;20041;-95
2023/01/05 02:39:34;;;;;;;12.35;1.60;;;;;;;;;;5022104;28;20021;-94
2023/01/05 02:42:01;;;;;;;10.60;1.90;;;;;;;;;;4996148;28;20099;-92
2023/01/05 02:44:28;;;;;;;13.23;1.83;;;;;;;;;;5007473;28;20116;-93
2023/01/05 02:47:01;;;;;;;11.57;1.88;;;;;;;;;;5022404;28;20040;-95
2023/01/05 02:49:27;;;;;;;12.75;2.03;;;;;;;;;;5021744;28;20057;-94
2023/01/05 02:51:54;;;;;;;11.60;1.63;;;;;;;;;;5021200;28;20033;-93
2023/01/05 02:54:40;;;;;;;12.68;1.83;;;;;;;;;;5020329;28;20042;-94
2023/01/05 02:57:10;;;;;;;11.02;1.50;;;;;;;;;;5015414;28;20033;-95
2023/01/05 02:59:38;;;;;;;8.32;1.65;;;;;;;;;;5029996;28;20024;-95
2023/01/05 03:04:47;;;;;;;10.32;1.85;;;;;;;;;;1471740;26;20053;-91
2023/01/05 03:07:14;;;;;;;12.48;2.00;;;;;;;;;;4968216;28;20034;-91
2023/01/05 03:09:41;;;;;;;6.20;1.25;;;;;;;;;;4962696;28;20117;-91
2023/01/05 03:14:58;;;;;;;13.13;1.80;;;;;;;;;;4982863;28;20570;-91
2023/01/05 03:17:44;;;;;;;12.27;1.80;;;;;;;;;;4973329;28;20668;-90
2023/01/05 03:20:11;;;;;;;12.27;1.98;;;;;;;;;;4968015;28;20105;-90
2023/01/05 03:37:01;;;;;;;10.05;1.75;;;;;;;;;;4979534;28;21005;-89
2023/01/05 03:39:27;;;;;;;15.80;2.40;;;;;;;;;;4965768;28;20030;-90
2023/01/05 03:41:53;;;;;;;8.95;1.73;;;;;;;;;;4992382;28;20021;-90
2023/01/05 03:44:18;;;;;;;11.65;1.70;;;;;;;;;;4971621;28;20037;-90
2023/01/05 03:46:44;;;;;;;11.10;1.73;;;;;;;;;;4988656;28;20153;-90
2023/01/05 03:49:09;;;;;;;16.80;2.42;;;;;;;;;;4966825;28;20027;-90
2023/01/05 03:51:35;;;;;;;11.95;1.90;;;;;;;;;;4982192;28;20034;-90
2023/01/05 03:54:00;;;;;;;11.40;1.63;;;;;;;;;;4996933;28;20432;-90
2023/01/05 03:56:25;;;;;;;12.00;1.90;;;;;;;;;;4971836;28;20485;-91
2023/01/05 03:58:50;;;;;;;11.25;1.70;;;;;;;;;;4965893;28;20117;-91
2023/01/05 04:01:16;;;;;;;9.27;1.65;;;;;;;;;;4982644;28;20077;-91
2023/01/05 04:03:41;;;;;;;11.75;1.52;;;;;;;;;;4982560;28;20478;-90
2023/01/05 04:06:06;;;;;;;12.32;1.90;;;;;;;;;;4979651;28;20540;-91
2023/01/05 04:08:31;;;;;;;11.93;1.90;;;;;;;;;;4979856;28;20497;-90
2023/01/05 04:11:08;;;;;;;9.85;1.60;;;;;;;;;;4981320;28;20144;-90
2023/01/05 04:13:33;;;;;;;10.70;1.60;;;;;;;;;;4980052;28;21720;-90
2023/01/05 04:15:59;;;;;;;10.07;1.90;;;;;;;;;;4979426;28;20244;-90
2023/01/05 04:18:24;;;;;;;11.82;2.17;;;;;;;;;;4979726;28;20625;-89
2023/01/05 04:20:52;;;;;;;9.63;1.90;;;;;;;;;;4985360;28;20022;-90
2023/01/05 04:23:17;;;;;;;13.40;2.13;;;;;;;;;;4970184;28;20727;-90
2023/01/05 04:25:45;;;;;;;9.20;1.83;;;;;;;;;;4986723;28;20037;-90
2023/01/05 04:28:10;;;;;;;8.90;1.98;;;;;;;;;;4985684;28;20113;-91
2023/01/05 04:30:35;;;;;;;8.68;1.88;;;;;;;;;;4988001;28;20163;-90
2023/01/05 04:33:00;;;;;;;12.07;1.70;;;;;;;;;;4983028;28;20033;-92
2023/01/05 04:35:26;;;;;;;13.87;2.07;;;;;;;;;;4982259;28;20074;-90
2023/01/05 04:37:51;;;;;;;12.60;2.50;;;;;;;;;;5001709;28;20372;-90
2023/01/05 04:40:16;;;;;;;11.40;1.70;;;;;;;;;;4999443;28;20551;-90
2023/01/05 04:42:42;;;;;;;11.98;1.90;;;;;;;;;;4984291;28;20116;-90
2023/01/05 04:45:07;;;;;;;12.10;2.17;;;;;;;;;;4989352;28;21054;-90
2023/01/05 04:47:33;;;;;;;10.70;2.10;;;;;;;;;;4983685;28;20042;-91
2023/01/05 04:49:58;;;;;;;10.65;2.30;;;;;;;;;;4989778;28;20034;-90
2023/01/05 04:52:23;;;;;;;12.10;2.10;;;;;;;;;;5003977;28;20037;-92
2023/01/05 04:54:49;;;;;;;11.13;2.22;;;;;;;;;;4999907;28;20416;-89
2023/01/05 04:57:14;;;;;;;9.73;2.20;;;;;;;;;;4978712;28;20080;-89
2023/01/05 04:59:39;;;;;;;11.93;2.20;;;;;;;;;;5002587;28;20366;-90
2023/01/05 05:02:04;;;;;;;12.68;2.33;;;;;;;;;;4985823;28;20026;-90
2023/01/05 05:04:30;;;;;;;17.45;2.50;;;;;;;;;;4983387;28;20393;-90
2023/01/05 05:06:55;;;;;;;10.95;2.20;;;;;;;;;;5005766;28;20030;-90
2023/01/05 05:09:20;;;;;;;14.05;2.60;;;;;;;;;;4987562;28;20034;-90
2023/01/05 05:11:46;;;;;;;16.60;2.67;;;;;;;;;;5003355;28;20033;-91
2023/01/05 05:14:11;;;;;;;11.55;2.20;;;;;;;;;;4984028;28;20026;-90
2023/01/05 05:16:36;;;;;;;12.02;2.20;;;;;;;;;;4989354;28;20438;-90
2023/01/05 05:19:01;;;;;;;12.80;2.10;;;;;;;;;;5005253;28;20022;-90
2023/01/05 05:21:27;;;;;;;13.07;2.33;;;;;;;;;;5002963;28;20461;-93
2023/01/05 05:23:52;;;;;;;11.77;1.70;;;;;;;;;;5000588;28;20014;-90
2023/01/05 05:26:17;;;;;;;10.45;1.70;;;;;;;;;;4997539;28;20510;-90
2023/01/05 05:28:43;;;;;;;13.65;2.08;;;;;;;;;;4999615;28;20030;-90
2023/01/05 05:31:08;;;;;;;12.95;1.95;;;;;;;;;;4999541;28;20041;-91
2023/01/05 05:33:33;;;;;;;10.30;2.10;;;;;;;;;;4988675;28;20110;-92
2023/01/05 05:35:58;;;;;;;13.48;1.85;;;;;;;;;;4990717;28;21117;-91
2023/01/05 05:38:24;;;;;;;9.40;1.80;;;;;;;;;;5007236;28;20029;-91
2023/01/05 05:40:50;;;;;;;9.15;1.80;;;;;;;;;;5004273;28;20040;-91
2023/01/05 05:43:15;;;;;;;11.57;1.60;;;;;;;;;;4990308;28;20077;-92
2023/01/05 05:45:41;;;;;;;13.20;2.20;;;;;;;;;;5008268;28;20386;-92
2023/01/05 05:48:06;;;;;;;16.63;2.40;;;;;;;;;;4995198;28;20026;-92
2023/01/05 05:50:31;;;;;;;15.73;2.13;;;;;;;;;;5005358;28;20041;-92
2023/01/05 05:52:57;;;;;;;11.13;1.80;;;;;;;;;;4990865;28;20301;-92
2023/01/05 05:55:22;;;;;;;10.82;1.65;;;;;;;;;;4991732;28;20066;-91
2023/01/05 05:57:47;;;;;;;12.32;1.83;;;;;;;;;;5014076;28;20434;-91
2023/01/05 06:00:13;;;;;;;14.68;2.40;;;;;;;;;;5006823;28;20034;-92
2023/01/05 06:02:38;;;;;;;10.48;1.90;;;;;;;;;;5009083;28;20048;-91
2023/01/05 06:05:04;;;;;;;12.80;2.05;;;;;;;;;;5007483;28;20363;-91
2023/01/05 06:07:29;;;;;;;10.88;1.73;;;;;;;;;;4991932;28;20037;-91
2023/01/05 06:09:54;;;;;;;14.02;1.98;;;;;;;;;;5007623;28;20305;-92
2023/01/05 06:12:20;;;;;;;11.73;2.20;;;;;;;;;;4987901;28;20025;-91
2023/01/05 06:14:45;;;;;;;12.75;1.77;;;;;;;;;;5006333;28;20455;-92
2023/01/05 06:17:10;;;;;;;18.25;2.17;;;;;;;;;;5005418;28;20044;-91
2023/01/05 06:19:35;;;;;;;16.48;2.53;;;;;;;;;;5004433;28;20048;-91
2023/01/05 06:22:01;;;;;;;13.35;1.80;;;;;;;;;;5007885;28;20037;-93
2023/01/05 06:24:26;;;;;;;14.23;2.03;;;;;;;;;;5006053;28;20026;-91
2023/01/05 06:26:51;;;;;;;13.68;1.98;;;;;;;;;;5006915;28;20553;-92
2023/01/05 06:29:17;;;;;;;14.05;1.65;;;;;;;;;;5013559;28;20041;-91
2023/01/05 06:31:42;;;;;;;11.50;1.73;;;;;;;;;;5005506;28;20564;-91
2023/01/05 06:34:07;;;;;;;12.20;1.70;;;;;;;;;;5003359;28;20026;-92
2023/01/05 06:36:32;;;;;;;10.00;2.00;;;;;;;;;;5005391;28;20410;-91
2023/01/05 06:38:58;;;;;;;9.40;1.42;;;;;;;;;;4989410;28;20561;-91
2023/01/05 06:41:23;;;;;;;12.38;1.83;;;;;;;;;;5003980;28;20041;-91
2023/01/05 06:43:48;;;;;;;10.80;2.03;;;;;;;;;;4988224;28;20060;-91
2023/01/05 06:46:14;;;;;;;14.75;1.90;;;;;;;;;;5002237;28;20030;-91
2023/01/05 06:48:39;;;;;;;12.63;1.80;;;;;;;;;;5002841;28;20037;-91
2023/01/05 06:51:05;;;;;;;11.30;1.65;;;;;;;;;;5001730;28;20314;-91
2023/01/05 06:53:30;;;;;;;13.70;1.77;;;;;;;;;;5004657;28;20026;-91
2023/01/05 06:55:55;;;;;;;9.45;1.70;;;;;;;;;;4985778;28;20042;-91
2023/01/05 06:58:20;;;;;;;11.82;2.10;;;;;;;;;;5010552;28;20030;-92
2023/01/05 07:00:46;;;;;;;11.57;1.63;;;;;;;;;;4993684;28;20067;-91
2023/01/05 07:03:12;;;;;;;13.20;1.92;;;;;;;;;;5005114;28;20363;-92
2023/01/05 07:05:37;;;;;;;15.93;1.92;;;;;;;;;;4995315;28;20571;-92
2023/01/05 07:08:02;;;;;;;13.77;2.10;;;;;;;;;;5003677;28;20030;-91
2023/01/05 07:10:29;;;;;;;12.02;1.52;;;;;;;;;;5001228;28;20025;-91
2023/01/05 07:12:54;;;;;;;10.73;1.88;;;;;;;;;;4990406;28;20052;-91
2023/01/05 07:15:19;;;;;;;12.68;2.40;;;;;;;;;;4992875;28;20033;-92
2023/01/05 07:17:45;;;;;;;11.68;2.05;;;;;;;;;;5011948;28;20037;-91
2023/01/05 07:20:10;;;;;;;9.82;1.73;;;;;;;;;;5008698;28;20081;-92
2023/01/05 07:22:35;;;;;;;11.60;2.03;;;;;;;;;;5004871;28;20032;-92
2023/01/05 07:25:01;;;;;;;15.15;2.22;;;;;;;;;;5007894;28;20100;-92
2023/01/05 07:27:26;;;;;;;15.55;2.45;;;;;;;;;;5011282;28;20030;-92
2023/01/05 07:29:51;;;;;;;14.45;1.90;;;;;;;;;;4999306;28;20116;-92
2023/01/05 07:32:17;;;;;;;12.27;1.83;;;;;;;;;;4988873;28;20037;-92
2023/01/05 07:34:42;;;;;;;11.82;1.73;;;;;;;;;;5003422;28;20022;-92
2023/01/05 07:37:07;;;;;;;16.30;2.15;;;;;;;;;;4998995;28;20092;-92
2023/01/05 07:39:33;;;;;;;14.23;2.00;;;;;;;;;;5009490;28;20460;-92
2023/01/05 07:41:58;;;;;;;13.25;2.30;;;;;;;;;;5007356;28;20021;-92
2023/01/05 07:44:23;;;;;;;11.75;2.22;;;;;;;;;;4984630;28;20030;-92
2023/01/05 07:46:48;;;;;;;11.82;1.70;;;;;;;;;;5002787;28;20041;-92
2023/01/05 07:49:14;;;;;;;10.82;1.70;;;;;;;;;;4992956;28;20017;-92
2023/01/05 07:51:39;;;;;;;12.20;2.17;;;;;;;;;;5022034;28;20052;-91
2023/01/05 07:54:05;;;;;;;10.93;1.95;;;;;;;;;;5014124;28;20423;-92
2023/01/05 07:56:30;;;;;;;17.58;2.15;;;;;;;;;;5016277;28;20029;-93
2023/01/05 07:58:55;;;;;;;14.57;2.40;;;;;;;;;;4991572;28;20037;-92
2023/01/05 08:01:20;;;;;;;14.65;2.20;;;;;;;;;;4984245;28;20026;-92
2023/01/05 08:03:46;;;;;;;17.13;2.95;;;;;;;;;;5006894;28;20446;-92
2023/01/05 08:06:12;;;;;;;12.90;2.00;;;;;;;;;;4996943;28;20053;-91
2023/01/05 08:08:38;;;;;;;12.18;2.50;;;;;;;;;;5014987;28;20030;-92
2023/01/05 08:11:04;;;;;;;20.10;3.35;;;;;;;;;;4988562;28;20630;-92
2023/01/05 08:16:15;;;;;;;20.40;2.97;;;;;;;;;;5003482;28;20040;-92
2023/01/05 08:18:40;;;;;;;18.75;3.00;;;;;;;;;;5010004;28;20033;-92
2023/01/05 08:21:07;;;;;;;17.13;3.10;;;;;;;;;;4993504;28;20556;-92
2023/01/05 08:23:33;;;;;;;22.27;3.47;;;;;;;;;;4987280;28;20037;-92
2023/01/05 08:26:02;;;;;;;22.17;3.20;;;;;;;;;;4983459;28;20034;-91
2023/01/05 08:28:28;;;;;;;25.75;4.03;;;;;;;;;;4991524;28;20381;-92
2023/01/05 08:30:58;;;;;;;22.85;3.47;;;;;;;;;;4980195;28;20030;-91
2023/01/05 08:33:24;;;;;;;26.10;3.53;;;;;;;;;;5002020;28;20029;-92
2023/01/05 08:35:52;;;;;;;17.52;2.90;;;;;;;;;;5005254;28;20021;-93
2023/01/05 08:38:19;;;;;;;22.52;3.15;;;;;;;;;;4979663;28;20053;-92
2023/01/05 08:40:45;;;;;;;23.48;3.42;;;;;;;;;;4988278;28;20072;-92
2023/01/05 08:43:10;;;;;;;18.05;3.08;;;;;;;;;;4978911;28;20034;-92
2023/01/05 08:45:35;;;;;;;15.65;2.63;;;;;;;;;;4983140;28;20050;-92
2023/01/05 08:48:01;;;;;;;13.85;2.10;;;;;;;;;;4979151;28;20498;-91
2023/01/05 08:50:26;;;;;;;12.75;2.20;;;;;;;;;;4979048;28;20036;-91
2023/01/05 08:52:51;;;;;;;12.90;1.95;;;;;;;;;;4999630;28;20041;-91
2023/01/05 08:55:17;;;;;;;14.77;2.20;;;;;;;;;;4982567;28;20030;-91
2023/01/05 08:57:42;;;;;;;13.93;2.17;;;;;;;;;;5002682;28;20426;-89
2023/01/05 09:00:08;;;;;;;12.55;2.17;;;;;;;;;;4988334;28;20028;-89
2023/01/05 09:02:33;;;;;;;13.65;2.72;;;;;;;;;;4997804;28;20413;-90
2023/01/05 09:04:58;;;;;;;18.08;2.42;;;;;;;;;;4976113;28;20046;-89
2023/01/05 09:07:24;;;;;;;14.88;2.58;;;;;;;;;;4984919;28;20413;-90
2023/01/05 09:09:52;;;;;;;14.75;2.72;;;;;;;;;;4983145;28;20050;-91
2023/01/05 09:12:17;;;;;;;19.13;2.70;;;;;;;;;;4984176;28;20037;-90
2023/01/05 09:14:42;;;;;;;12.88;2.38;;;;;;;;;;5002811;28;20402;-90
2023/01/05 09:17:08;;;;;;;14.90;2.25;;;;;;;;;;5001759;28;20199;-90
2023/01/05 09:19:33;;;;;;;19.35;3.00;;;;;;;;;;4998505;28;20073;-91
2023/01/05 09:21:58;;;;;;;13.95;2.72;;;;;;;;;;4984945;28;20157;-90
2023/01/05 09:24:24;;;;;;;14.23;3.10;;;;;;;;;;4989419;28;20018;-91
2023/01/05 09:26:49;;;;;;;17.10;2.90;;;;;;;;;;5005825;28;20663;-90
2023/01/05 09:29:15;;;;;;;12.82;3.22;;;;;;;;;;4989330;28;20025;-90
2023/01/05 09:31:40;;;;;;;14.18;2.92;;;;;;;;;;4995994;28;20034;-90
2023/01/05 09:34:05;;;;;;;15.32;3.20;;;;;;;;;;4984875;28;20034;-91
2023/01/05 09:36:31;;;;;;;15.65;3.00;;;;;;;;;;4994049;28;20028;-89
2023/01/05 09:38:56;;;;;;;19.05;2.97;;;;;;;;;;5007252;28;20021;-90
2023/01/05 09:41:26;;;;;;;15.20;2.85;;;;;;;;;;4988836;28;20786;-90
2023/01/05 09:43:55;;;;;;;13.85;3.30;;;;;;;;;;5008337;28;20108;-90
2023/01/05 09:46:22;;;;;;;13.73;3.35;;;;;;;;;;5008391;28;20034;-90
2023/01/05 09:48:49;;;;;;;12.90;2.70;;;;;;;;;;5003243;28;20034;-90
2023/01/05 09:51:15;;;;;;;15.50;2.97;;;;;;;;;;5004943;28;20030;-90
2023/01/05 09:53:40;;;;;;;13.68;2.97;;;;;;;;;;5003550;28;20501;-90
2023/01/05 09:56:11;;;;;;;19.05;2.75;;;;;;;;;;4984217;28;20496;-90
2023/01/05 09:58:39;;;;;;;14.20;2.95;;;;;;;;;;4996941;28;20018;-90
2023/01/05 10:01:12;;;;;;;12.40;2.53;;;;;;;;;;5000229;28;20057;-90
2023/01/05 10:03:39;;;;;;;11.27;2.70;;;;;;;;;;5001034;28;20036;-90
2023/01/05 10:06:10;;;;;;;10.82;2.40;;;;;;;;;;5012929;28;20483;-90
2023/01/05 10:08:39;;;;;;;9.60;2.08;;;;;;;;;;5011595;28;20029;-90
2023/01/05 10:14:11;;;;;;;8.30;2.08;;;;;;;;;;4997754;28;20128;-89
2023/01/05 10:16:37;;;;;;;8.63;2.00;;;;;;;;;;4978973;28;20057;-90
2023/01/05 10:19:03;;;;;;;7.28;1.63;;;;;;;;;;4985502;28;20022;-89
2023/01/05 10:21:51;;;;;;;6.93;1.50;;;;;;;;;;4999479;28;20033;-89
2023/01/05 10:24:17;;;;;;;7.53;1.63;;;;;;;;;;4987196;28;20026;-89
2023/01/05 10:26:48;;;;;;;7.30;1.52;;;;;;;;;;4984465;28;20924;-88
2023/01/05 10:29:16;;;;;;;6.10;1.40;;;;;;;;;;4991013;28;20037;-89
2023/01/05 10:31:59;;;;;;;10.30;1.70;;;;;;;;;;4993830;28;20018;-88
2023/01/05 10:34:45;;;;;;;7.28;1.60;;;;;;;;;;4992864;28;20037;-89
2023/01/05 10:37:29;;;;;;;8.90;2.22;;;;;;;;;;4992428;28;20057;-89
2023/01/05 10:40:09;;;;;;;9.07;2.22;;;;;;;;;;5000230;28;20029;-89
2023/01/05 10:42:53;;;;;;;9.90;2.55;;;;;;;;;;4995144;28;20120;-89
2023/01/05 10:45:18;;;;;;;10.15;2.40;;;;;;;;;;4993816;28;20493;-89
2023/01/05 10:47:45;;;;;;;12.32;2.67;;;;;;;;;;4982297;28;20026;-88
2023/01/05 10:50:29;;;;;;;10.30;2.42;;;;;;;;;;4980935;28;20061;-89
2023/01/05 10:52:54;;;;;;;10.88;2.95;;;;;;;;;;4984834;28;21317;-89
2023/01/05 10:55:22;;;;;;;13.20;2.72;;;;;;;;;;4981914;28;20594;-89
2023/01/05 10:57:48;;;;;;;14.13;3.10;;;;;;;;;;4999852;28;20030;-89
2023/01/05 11:00:17;;;;;;;12.30;3.10;;;;;;;;;;4977024;28;20088;-89
2023/01/05 11:02:43;;;;;;;12.18;3.08;;;;;;;;;;4994227;28;20050;-89
2023/01/05 11:05:08;;;;;;;11.55;3.30;;;;;;;;;;4979164;28;20533;-89
2023/01/05 11:07:45;;;;;;;11.60;2.63;;;;;;;;;;4995726;28;20087;-89
2023/01/05 11:10:21;;;;;;;9.20;2.75;;;;;;;;;;4991898;28;20022;-89
2023/01/05 11:12:51;;;;;;;8.88;2.60;;;;;;;;;;4999920;28;20025;-90
2023/01/05 11:15:18;;;;;;;11.85;2.83;;;;;;;;;;4996534;28;20083;-89
2023/01/05 11:17:44;;;;;;;12.50;2.83;;;;;;;;;;4996350;28;20543;-89
2023/01/05 11:20:16;;;;;;;13.85;3.00;;;;;;;;;;4996110;28;20068;-90
2023/01/05 11:22:46;;;;;;;12.65;3.10;;;;;;;;;;4994366;28;20030;-90
2023/01/05 11:25:12;;;;;;;10.27;2.40;;;;;;;;;;5002160;28;20045;-91
2023/01/05 11:27:37;;;;;;;11.40;2.75;;;;;;;;;;5002601;28;20532;-90
2023/01/05 11:30:29;;;;;;;10.48;2.50;;;;;;;;;;5002792;28;20026;-90
2023/01/05 11:32:56;;;;;;;10.57;2.42;;;;;;;;;;4977088;28;20045;-89
2023/01/05 11:35:28;;;;;;;9.57;2.63;;;;;;;;;;4978602;28;20051;-89
2023/01/05 11:37:54;;;;;;;12.90;2.72;;;;;;;;;;4999870;28;20034;-89
2023/01/05 11:40:27;;;;;;;11.40;2.53;;;;;;;;;;5002455;28;20056;-90
2023/01/05 11:42:52;;;;;;;9.70;2.55;;;;;;;;;;4979240;28;20030;-90
2023/01/05 11:45:19;;;;;;;10.50;2.15;;;;;;;;;;4983783;28;20030;-90
2023/01/05 11:47:53;;;;;;;9.95;2.47;;;;;;;;;;5004481;28;20665;-89
2023/01/05 11:50:20;;;;;;;11.55;2.53;;;;;;;;;;4999959;28;20069;-89
2023/01/05 11:52:50;;;;;;;12.23;2.10;;;;;;;;;;4997536;28;20974;-89
2023/01/05 11:55:18;;;;;;;10.40;2.40;;;;;;;;;;4982044;28;20037;-89
2023/01/05 11:57:44;;;;;;;12.25;2.63;;;;;;;;;;4994585;28;20038;-91
2023/01/05 12:00:21;;;;;;;12.77;2.25;;;;;;;;;;4993692;28;20554;-90
2023/01/05 12:02:50;;;;;;;11.95;2.80;;;;;;;;;;4979838;28;21306;-90
2023/01/05 12:05:21;;;;;;;13.27;2.10;;;;;;;;;;5000505;28;20048;-89
2023/01/05 12:07:49;;;;;;;13.48;2.17;;;;;;;;;;4986571;28;20032;-90
2023/01/05 12:10:21;;;;;;;8.43;1.90;;;;;;;;;;4997809;28;20048;-90
2023/01/05 12:12:53;;;;;;;13.98;2.38;;;;;;;;;;5002649;28;20030;-89
2023/01/05 12:15:41;;;;;;;9.90;2.25;;;;;;;;;;4987394;28;20026;-89
2023/01/05 12:18:13;;;;;;;13.93;2.72;;;;;;;;;;5005091;28;20045;-89
2023/01/05 12:20:42;;;;;;;13.88;2.13;;;;;;;;;;5003822;28;20029;-90
2023/01/05 12:23:10;;;;;;;11.75;2.10;;;;;;;;;;5000440;28;20022;-90
2023/01/05 12:25:38;;;;;;;12.25;1.88;;;;;;;;;;5002275;28;20491;-90
2023/01/05 12:28:03;;;;;;;11.73;2.20;;;;;;;;;;5002790;28;20133;-90
2023/01/05 12:30:52;;;;;;;15.50;2.72;;;;;;;;;;4989316;28;20204;-91
2023/01/05 12:33:42;;;;;;;11.70;1.92;;;;;;;;;;4888984;29;20400;-89
2023/01/05 12:36:21;;;;;;;7.88;1.60;;;;;;;;;;4906186;29;20780;-90
2023/01/05 12:39:11;;;;;;;11.18;2.35;;;;;;;;;;4895278;29;20047;-90
2023/01/05 12:41:50;;;;;;;11.20;1.92;;;;;;;;;;4904063;29;20118;-90
2023/01/05 12:44:34;;;;;;;9.25;2.13;;;;;;;;;;4886146;29;20844;-89
2023/01/05 12:47:10;;;;;;;16.00;2.83;;;;;;;;;;4900165;29;20036;-89
2023/01/05 12:49:41;;;;;;;9.75;1.90;;;;;;;;;;4898091;29;20050;-90
2023/01/05 12:52:11;;;;;;;14.00;2.40;;;;;;;;;;4901005;29;20119;-89
2023/01/05 12:54:42;;;;;;;11.65;2.63;;;;;;;;;;4907990;29;20043;-90
2023/01/05 12:57:20;;;;;;;8.65;1.95;;;;;;;;;;4903879;29;20037;-90
2023/01/05 12:59:55;;;;;;;11.25;2.22;;;;;;;;;;4907600;29;20099;-89
2023/01/05 13:02:23;;;;;;;19.88;2.72;;;;;;;;;;4888986;29;20032;-90
2023/01/05 13:04:49;;;;;;;10.13;2.17;;;;;;;;;;4906429;29;20028;-90
2023/01/05 13:07:18;;;;;;;14.10;2.85;;;;;;;;;;4891757;29;20099;-89
2023/01/05 13:09:46;;;;;;;12.93;2.47;;;;;;;;;;4930315;28;20093;-90
2023/01/05 13:12:12;;;;;;;16.35;2.65;;;;;;;;;;5008241;28;20069;-90
2023/01/05 13:14:48;;;;;;;13.70;2.33;;;;;;;;;;4991033;28;20054;-90
2023/01/05 13:17:33;;;;;;;9.73;1.90;;;;;;;;;;5008965;28;20034;-90
2023/01/05 13:20:04;;;;;;;9.75;1.80;;;;;;;;;;4988732;28;20022;-90
2023/01/05 13:22:31;;;;;;;11.05;1.85;;;;;;;;;;4993888;28;20076;-90
2023/01/05 13:25:00;;;;;;;12.00;2.10;;;;;;;;;;4989250;28;20026;-90
2023/01/05 13:27:28;;;;;;;10.60;1.70;;;;;;;;;;5010120;28;20807;-90
2023/01/05 13:29:58;;;;;;;12.98;1.80;;;;;;;;;;5009179;28;20046;-90
2023/01/05 13:32:38;;;;;;;10.40;1.63;;;;;;;;;;5009648;28;20532;-90
2023/01/05 13:35:07;;;;;;;12.32;2.42;;;;;;;;;;4990644;28;20025;-90
2023/01/05 13:37:43;;;;;;;11.52;1.98;;;;;;;;;;5004945;28;20064;-90
2023/01/05 13:40:27;;;;;;;14.00;2.15;;;;;;;;;;4988839;28;20022;-90
2023/01/05 13:43:05;;;;;;;8.85;1.77;;;;;;;;;;4991371;28;20014;-90
2023/01/05 13:45:45;;;;;;;12.43;2.10;;;;;;;;;;5009506;28;20060;-90
2023/01/05 13:48:13;;;;;;;12.35;1.90;;;;;;;;;;4987262;28;20034;-90
2023/01/05 13:50:58;;;;;;;11.50;2.58;;;;;;;;;;5010871;28;20022;-90
2023/01/05 13:53:25;;;;;;;8.77;1.80;;;;;;;;;;5008911;28;20540;-90
2023/01/05 13:55:52;;;;;;;8.27;2.00;;;;;;;;;;5004092;28;20026;-90
2023/01/05 13:58:28;;;;;;;7.70;1.90;;;;;;;;;;5002707;28;20029;-90
2023/01/05 14:00:54;;;;;;;14.52;2.35;;;;;;;;;;4986763;28;20083;-90
2023/01/05 14:03:19;;;;;;;11.98;2.33;;;;;;;;;;4985352;28;20398;-90
2023/01/05 14:05:50;;;;;;;7.95;1.83;;;;;;;;;;4985212;28;20412;-90
2023/01/05 14:08:26;;;;;;;11.75;2.55;;;;;;;;;;4989836;28;20045;-89
2023/01/05 14:11:07;;;;;;;9.55;2.40;;;;;;;;;;4989735;28;20429;-90
2023/01/05 14:13:53;;;;;;;10.35;2.60;;;;;;;;;;5004786;28;20079;-90
2023/01/05 14:19:14;;;;;;;10.60;2.42;;;;;;;;;;5005490;28;20061;-90
2023/01/05 14:21:59;;;;;;;8.48;2.33;;;;;;;;;;5006109;28;20638;-90
2023/01/05 14:24:35;;;;;;;11.85;2.25;;;;;;;;;;4991102;28;20045;-90
2023/01/05 14:27:00;;;;;;;12.20;2.90;;;;;;;;;;5000002;28;20762;-89
2023/01/05 14:29:44;;;;;;;9.98;2.35;;;;;;;;;;5008464;28;20056;-89
2023/01/05 14:32:11;;;;;;;12.25;2.47;;;;;;;;;;4998347;28;20122;-90
2023/01/05 14:34:36;;;;;;;6.35;1.77;;;;;;;;;;4988942;28;20026;-90
2023/01/05 14:37:03;;;;;;;12.20;1.85;;;;;;;;;;5010880;28;20027;-90
2023/01/05 14:39:31;;;;;;;9.77;1.98;;;;;;;;;;4984316;28;20026;-90
2023/01/05 14:42:19;;;;;;;6.30;1.50;;;;;;;;;;4991706;28;20022;-89
2023/01/05 14:44:51;;;;;;;5.57;1.40;;;;;;;;;;4999457;28;20105;-89
2023/01/05 14:47:31;;;;;;;6.53;1.48;;;;;;;;;;5010772;28;20037;-90
2023/01/05 14:50:02;;;;;;;6.32;1.70;;;;;;;;;;5005381;28;20064;-90
2023/01/05 14:52:46;;;;;;;8.93;1.88;;;;;;;;;;5001020;28;20041;-90
2023/01/05 14:55:18;;;;;;;8.70;1.70;;;;;;;;;;5005755;28;20039;-89
2023/01/05 14:57:47;;;;;;;8.48;2.10;;;;;;;;;;4986290;28;20430;-90
2023/01/05 15:00:15;;;;;;;10.13;1.77;;;;;;;;;;5001088;28;20033;-89
2023/01/05 15:02:46;;;;;;;9.75;1.67;;;;;;;;;;4990788;28;20029;-89
2023/01/05 15:05:14;;;;;;;9.00;1.85;;;;;;;;;;4986584;28;20076;-90
2023/01/05 15:07:54;;;;;;;10.23;1.83;;;;;;;;;;5007297;28;20048;-90
2023/01/05 15:10:36;;;;;;;10.13;2.15;;;;;;;;;;5008442;28;20025;-90
2023/01/05 15:13:04;;;;;;;6.47;1.60;;;;;;;;;;5001796;28;20759;-90
2023/01/05 15:15:47;;;;;;;8.35;1.75;;;;;;;;;;5005847;28;20114;-91
2023/01/05 15:18:22;;;;;;;9.05;2.00;;;;;;;;;;4988431;28;20437;-90
2023/01/05 15:20:47;;;;;;;9.80;1.50;;;;;;;;;;4988933;28;20054;-89